• Join FlightAware (Why Join?)
  • Login
  • US Flag 
03:07AM EST


 

Airport Tracker/Info


-or-


 

Live Flight TrackerFlight Track Log ✈ UAL4335 ✈ 12-Apr-2013 ✈ KIAH - KABQ

Flight Track Log - Related Links

Times and Time Zones

All times are in EDT time to prevent confusion due to time zone crossing. See the UAL4335 flight status page for this flight to view local times or setup timezone preferences in your user account.

Time Position Orientation Groundspeed Altitude Reporting Facility
EDT Latitude Longitude Course Direction KTS MPH feet Rate Location/Type
03:57PM 29.9550 -95.3394 276° West 169 194 800  Level Houston Center
03:59PM 29.8875 -95.4000 218° Southwest 244 281 3,400 1,620 Climbing Houston Center
04:00PM 29.8469 -95.4658 235° Southwest 266 306 5,000 2,220 Climbing Houston Center
04:01PM 30.0326 -95.7936 277° West  Level FlightAware Approximate
04:01PM 29.8239 -95.5481 252° West 262 302 8,000  Level Houston Center
04:02PM 30.0425 -95.9093 276° West  Level FlightAware Approximate
04:02PM 29.8592 -95.6297 296° West 279 321 10,200  Level Houston Center
04:03PM 29.9114 -95.7375 299° West 315 362 11,500 1,380 Climbing Houston Center
04:04PM 29.9578 -95.8347 299° West 345 397 13,100 1,620 Climbing Houston Center
04:05PM 30.0058 -95.9311 300° West 347 399 14,900 1,500 Climbing Houston Center
04:06PM 30.0533 -96.0258 300° West 345 397 16,400 1,440 Climbing Houston Center
04:07PM 30.0808 -96.1308 287° West 343 395 17,900 1,380 Climbing Houston Center
04:08PM 30.0981 -96.2411 280° West 350 403 19,300 1,500 Climbing Houston Center
04:09PM 30.1183 -96.3714 280° West 347 399 21,100 1,500 Climbing Houston Center
04:10PM 30.1350 -96.4794 280° West 348 400 22,500 1,380 Climbing Houston Center
04:11PM 30.1514 -96.5914 280° West 348 400 24,000 1,440 Climbing Houston Center
04:12PM 30.1681 -96.7019 280° West 346 398 25,500 1,380 Climbing Houston Center
04:13PM 30.1892 -96.8103 283° West 343 395 26,900 1,500 Climbing Houston Center
04:14PM 30.2217 -96.9350 287° West 343 395 28,600 1,500 Climbing Houston Center
04:15PM 30.2486 -97.0367 287° West 332 382 30,100 1,380 Climbing Houston Center
04:16PM 30.2747 -97.1392 286° West 328 377 31,500 1,380 Climbing Houston Center
04:17PM 30.3011 -97.2394 287° West 323 372 33,000 1,200 Climbing Houston Center
04:18PM 30.3258 -97.3375 286° West 315 362 34,100 960 Climbing Houston Center
04:19PM 30.3514 -97.4364 287° West 315 362 35,000 840 Climbing Houston Center
04:21PM 30.3769 -97.5350 287° West 316 364 35,900 420 Climbing Houston Center
04:22PM 30.4025 -97.6347 287° West 317 365 36,000  Climbing Houston Center
04:23PM 30.4339 -97.7617 286° West 344 396 36,000  Level Houston Center
04:24PM 30.4644 -97.8767 287° West 366 421 36,000  Level Houston Center
04:25PM 30.4933 -97.9956 286° West 375 432 36,000  Level Houston Center
04:26PM 30.5222 -98.1200 285° West 389 448 36,000  Level Houston Center
04:27PM 30.5539 -98.2444 286° West 396 456 36,000  Level Houston Center
04:28PM 30.5831 -98.3678 285° West 396 456 36,000  Level Houston Center
04:29PM 30.6131 -98.4925 286° West 396 456 36,000  Level Houston Center
04:30PM 30.6436 -98.6178 286° West 397 457 36,000  Level Houston Center
04:31PM 30.6786 -98.7644 286° West 399 459 36,000  Level Houston Center
04:32PM 30.7075 -98.8900 285° West 400 460 36,000  Level Houston Center
04:33PM 30.7358 -99.0147 285° West 397 457 36,000  Level Houston Center
04:34PM 30.7656 -99.1408 285° West 400 460 36,000  Level Houston Center
04:35PM 30.7925 -99.2581 285° West 399 459 36,000  Level Houston Center
04:36PM 30.8264 -99.4081 285° West 401 461 36,000  Level Houston Center
04:37PM 30.8531 -99.5306 284° West 392 451 36,000  Level Houston Center
04:38PM 30.8822 -99.6539 285° West 397 457 36,000  Level Houston Center
04:39PM 30.9094 -99.7792 284° West 399 459 36,000  Level Houston Center
04:40PM 30.9389 -99.9017 286° West 395 455 36,000  Level Houston Center
04:41PM 30.9703 -100.0503 284° West 396 456 36,000  Level Houston Center
04:42PM 30.9986 -100.1736 285° West 395 455 36,000  Level Houston Center
04:43PM 31.0264 -100.2944 285° West 386 444 36,000  Level Houston Center
04:44PM 31.0525 -100.4167 284° West 387 445 36,000  Level Houston Center
04:45PM 31.1094 -100.5294 301° West 396 456 36,000  Level Houston Center
04:46PM 31.1964 -100.6625 307° West 399 459 36,000  Level Fort Worth Center
04:47PM 31.2647 -100.7644 308° West 404 465 36,000  Level Fort Worth Center
04:48PM 31.3328 -100.8717 307° West 410 472 36,000  Level Fort Worth Center
04:49PM 31.3972 -100.9567 312° West 401 461 36,000  Level Fort Worth Center
04:50PM 31.4717 -101.0544 312° West 396 456 36,000  Level Fort Worth Center
04:51PM 31.5439 -101.1550 310° West 396 456 36,000  Level Fort Worth Center
04:52PM 31.6181 -101.2556 311° West 403 464 36,000  Level Fort Worth Center
04:53PM 31.6922 -101.3539 312° West 409 471 36,000  Level Fort Worth Center
04:54PM 31.7661 -101.4594 309° West 409 471 36,000  Level Fort Worth Center
04:55PM 31.8381 -101.5581 311° West 409 471 36,000  Level Fort Worth Center
04:56PM 31.9119 -101.6569 311° West 409 471 36,000  Level Fort Worth Center
04:57PM 31.9858 -101.7583 311° West 409 471 36,000  Level Fort Worth Center
04:58PM 32.0572 -101.8597 310° West 409 471 36,000  Level Fort Worth Center
04:59PM 32.1289 -101.9589 310° West 404 465 36,000  Level Fort Worth Center
05:00PM 32.2061 -102.0708 309° West 404 465 36,000  Level Fort Worth Center
05:01PM 32.2756 -102.1700 310° West 404 465 36,000  Level Fort Worth Center
05:02PM 32.3489 -102.2697 311° West 404 465 36,000  Level Fort Worth Center
05:03PM 32.4164 -102.3619 311° West 404 465 36,000 -60 Level Fort Worth Center
05:04PM 32.4875 -102.4644 309° West 404 465 35,900  Descending Fort Worth Center
05:05PM 32.5644 -102.5722 310° West 397 457 36,000  Climbing Fort Worth Center
05:06PM 32.6294 -102.6647 310° West 397 457 36,000  Level Fort Worth Center
05:07PM 32.7003 -102.7653 310° West 397 457 36,000  Level Fort Worth Center
05:08PM 32.7711 -102.8633 311° West 397 457 36,000  Level Fort Worth Center
05:09PM 32.8419 -102.9639 310° West 397 457 36,000  Level Fort Worth Center
05:10PM 32.9125 -103.0672 309° West 397 457 36,000  Level Fort Worth Center
05:11PM 32.9831 -103.1683 310° West 397 457 36,000  Level Fort Worth Center
05:12PM 33.0189 -103.2228 308° West 397 457 36,000  Level Albuquerque Center
05:13PM 33.0889 -103.3242 310° West 395 455 36,000  Level Albuquerque Center
05:14PM 33.1733 -103.4436 310° West 393 452 36,000  Level Albuquerque Center
05:15PM 33.2428 -103.5453 309° West 394 453 36,000  Level Albuquerque Center
05:16PM 33.3117 -103.6489 309° West 397 457 36,000  Level Albuquerque Center
05:17PM 33.3958 -103.7617 312° West 402 463 36,000  Level Albuquerque Center
05:18PM 33.4644 -103.8636 309° West 397 457 36,000  Level Albuquerque Center
05:19PM 33.5400 -103.9733 310° West 397 457 36,000  Level Albuquerque Center
05:20PM 33.6075 -104.0744 309° West 393 452 36,000  Level Albuquerque Center
05:21PM 33.6814 -104.1833 309° West 392 451 36,000  Level Albuquerque Center
05:22PM 33.7500 -104.2858 309° West 396 456 36,000 -240 Level Albuquerque Center
05:23PM 33.8236 -104.3953 309° West 392 451 35,600 -780 Descending Albuquerque Center
05:24PM 33.8933 -104.4981 309° West 396 456 34,500 -1,080 Descending Albuquerque Center
05:25PM 33.9672 -104.6097 309° West 397 457 33,400 -1,080 Descending Albuquerque Center
05:27PM 34.0392 -104.7125 310° West 396 456 32,300 -720 Descending Albuquerque Center
05:28PM 34.1100 -104.8208 308° West 403 464 32,000 -180 Descending Albuquerque Center
05:29PM 34.1822 -104.9286 309° West 407 468 32,000  Level Albuquerque Center
05:30PM 34.2542 -105.0367 309° West 408 470 32,000  Level Albuquerque Center
05:31PM 34.3264 -105.1450 309° West 409 471 32,000 -540 Level Albuquerque Center
05:32PM 34.3967 -105.2514 309° West 402 463 30,900 -1,440 Descending Albuquerque Center
05:33PM 34.4642 -105.3553 308° West 393 452 29,100 -2,040 Descending Albuquerque Center
05:34PM 34.5425 -105.4747 309° West 386 444 26,700 -2,280 Descending Albuquerque Center
05:35PM 34.6133 -105.5839 308° West 399 459 24,500 -2,280 Descending Albuquerque Center
05:36PM 34.6869 -105.6944 309° West 410 472 22,100 -2,340 Descending Albuquerque Center
05:37PM 34.7772 -105.8406 307° West 386 444 19,000 -1,860 Descending Albuquerque Center
05:38PM 34.8203 -105.8975 313° West 378 435 18,300 -1,500 Descending Albuquerque Center
05:38PM 34.8358 -105.9286 301° West 326 375 17,500 -2,520 Descending Albuquerque Center
05:39PM 34.8767 -105.9894 309° West 336 387 15,700 -2,640 Descending Albuquerque Center
05:39PM 34.8944 -106.0167 309° West 331 381 14,900 -2,160 Descending Albuquerque Center
05:40PM 34.9350 -106.0794 308° West 337 388 13,500 -1,980 Descending Albuquerque Center
05:41PM 34.9525 -106.2089 279° West 317 365 11,100 -1,680 Descending Albuquerque Center
05:42PM 34.9547 -106.2872 272° West 308 354 10,100 -900 Descending Albuquerque Center
05:43PM 34.9550 -106.3761 270° West 281 323 9,400 -720 Descending Albuquerque Center